sensor_id;sensor_type;location;lat;lon;timestamp;pressure;altitude;pressure_sealevel;temperature;humidity
13869;BME280;7004;48.206;16.402;2023-01-15T00:00:50;99367.81;;;7.18;69.67
13869;BME280;7004;48.206;16.402;2023-01-15T00:03:17;99353.22;;;7.13;69.08
13869;BME280;7004;48.206;16.402;2023-01-15T00:05:43;99358.16;;;7.35;67.76
13869;BME280;7004;48.206;16.402;2023-01-15T00:08:14;99350.06;;;7.54;67.06
13869;BME280;7004;48.206;16.402;2023-01-15T00:10:40;99350.31;;;7.49;67.69
13869;BME280;7004;48.206;16.402;2023-01-15T00:13:08;99336.50;;;7.46;67.29
13869;BME280;7004;48.206;16.402;2023-01-15T00:15:34;99333.72;;;7.33;67.23
13869;BME280;7004;48.206;16.402;2023-01-15T00:18:01;99331.94;;;7.33;67.67
13869;BME280;7004;48.206;16.402;2023-01-15T00:20:27;99326.94;;;7.44;67.98
13869;BME280;7004;48.206;16.402;2023-01-15T00:22:53;99325.41;;;7.40;68.00
13869;BME280;7004;48.206;16.402;2023-01-15T00:25:22;99319.78;;;7.47;67.71
13869;BME280;7004;48.206;16.402;2023-01-15T00:28:07;99321.13;;;7.54;67.74
13869;BME280;7004;48.206;16.402;2023-01-15T00:30:33;99331.53;;;7.71;67.04
13869;BME280;7004;48.206;16.402;2023-01-15T00:32:59;99329.47;;;7.46;68.35
13869;BME280;7004;48.206;16.402;2023-01-15T00:35:25;99330.06;;;7.51;67.95
13869;BME280;7004;48.206;16.402;2023-01-15T00:37:51;99321.41;;;7.33;69.46
13869;BME280;7004;48.206;16.402;2023-01-15T00:40:19;99316.22;;;7.63;68.47
13869;BME280;7004;48.206;16.402;2023-01-15T00:42:45;99313.38;;;7.66;67.93
13869;BME280;7004;48.206;16.402;2023-01-15T00:45:12;99308.31;;;7.63;68.76
13869;BME280;7004;48.206;16.402;2023-01-15T00:47:43;99320.69;;;7.61;68.97
13869;BME280;7004;48.206;16.402;2023-01-15T00:50:13;99312.44;;;7.83;68.07
13869;BME280;7004;48.206;16.402;2023-01-15T00:52:40;99315.84;;;7.70;68.47
13869;BME280;7004;48.206;16.402;2023-01-15T00:55:08;99307.69;;;7.74;68.56
13869;BME280;7004;48.206;16.402;2023-01-15T00:57:34;99306.72;;;7.61;69.03
13869;BME280;7004;48.206;16.402;2023-01-15T01:00:00;99308.50;;;7.60;69.64
13869;BME280;7004;48.206;16.402;2023-01-15T01:02:27;99309.91;;;7.66;69.00
13869;BME280;7004;48.206;16.402;2023-01-15T01:04:53;99308.56;;;7.89;67.95
13869;BME280;7004;48.206;16.402;2023-01-15T01:07:19;99308.81;;;7.54;70.05
13869;BME280;7004;48.206;16.402;2023-01-15T01:09:45;99299.25;;;7.53;70.51
13869;BME280;7004;48.206;16.402;2023-01-15T01:12:11;99300.94;;;7.54;69.74
13869;BME280;7004;48.206;16.402;2023-01-15T01:14:37;99295.28;;;7.76;69.76
13869;BME280;7004;48.206;16.402;2023-01-15T01:17:03;99289.09;;;7.77;69.10
13869;BME280;7004;48.206;16.402;2023-01-15T01:19:30;99286.81;;;7.71;69.51
13869;BME280;7004;48.206;16.402;2023-01-15T01:21:56;99286.00;;;7.55;70.46
13869;BME280;7004;48.206;16.402;2023-01-15T01:24:23;99279.38;;;7.63;70.36
13869;BME280;7004;48.206;16.402;2023-01-15T01:26:50;99278.44;;;7.64;70.53
13869;BME280;7004;48.206;16.402;2023-01-15T01:29:19;99279.06;;;7.84;69.51
13869;BME280;7004;48.206;16.402;2023-01-15T01:31:47;99274.13;;;7.78;69.73
13869;BME280;7004;48.206;16.402;2023-01-15T01:34:13;99272.84;;;7.55;70.38
13869;BME280;7004;48.206;16.402;2023-01-15T01:36:42;99269.19;;;7.57;71.01
13869;BME280;7004;48.206;16.402;2023-01-15T01:39:14;99259.31;;;7.47;71.56
13869;BME280;7004;48.206;16.402;2023-01-15T01:41:41;99266.59;;;7.41;73.26
13869;BME280;7004;48.206;16.402;2023-01-15T01:47:02;99257.31;;;7.80;70.87
13869;BME280;7004;48.206;16.402;2023-01-15T01:49:29;99256.72;;;7.61;72.20
13869;BME280;7004;48.206;16.402;2023-01-15T01:52:14;99238.78;;;7.68;72.00
13869;BME280;7004;48.206;16.402;2023-01-15T01:54:44;99243.06;;;7.99;70.38
13869;BME280;7004;48.206;16.402;2023-01-15T01:57:12;99233.88;;;7.92;71.06
13869;BME280;7004;48.206;16.402;2023-01-15T01:59:40;99228.59;;;8.06;70.66
13869;BME280;7004;48.206;16.402;2023-01-15T02:02:06;99227.97;;;7.28;72.81
13869;BME280;7004;48.206;16.402;2023-01-15T02:04:35;99214.78;;;7.43;73.61
13869;BME280;7004;48.206;16.402;2023-01-15T02:07:05;99209.63;;;7.42;73.53
13869;BME280;7004;48.206;16.402;2023-01-15T02:09:33;99215.44;;;7.17;74.55
13869;BME280;7004;48.206;16.402;2023-01-15T02:15:12;99198.66;;;7.64;73.07
13869;BME280;7004;48.206;16.402;2023-01-15T02:18:11;99192.63;;;7.48;73.76
13869;BME280;7004;48.206;16.402;2023-01-15T02:21:04;99192.69;;;7.32;74.25
13869;BME280;7004;48.206;16.402;2023-01-15T02:33:05;99180.91;;;7.53;74.08
13869;BME280;7004;48.206;16.402;2023-01-15T02:35:56;99186.44;;;7.18;75.80
13869;BME280;7004;48.206;16.402;2023-01-15T02:38:31;99184.31;;;7.25;75.60
13869;BME280;7004;48.206;16.402;2023-01-15T02:41:01;99178.41;;;7.21;76.64
13869;BME280;7004;48.206;16.402;2023-01-15T02:43:34;99174.56;;;7.27;76.45
13869;BME280;7004;48.206;16.402;2023-01-15T02:46:03;99171.81;;;7.29;76.27
13869;BME280;7004;48.206;16.402;2023-01-15T02:48:33;99170.28;;;7.55;75.50
13869;BME280;7004;48.206;16.402;2023-01-15T02:51:15;99169.81;;;7.48;76.27
13869;BME280;7004;48.206;16.402;2023-01-15T02:53:47;99159.94;;;7.37;75.78
13869;BME280;7004;48.206;16.402;2023-01-15T02:56:21;99162.50;;;7.53;74.99
13869;BME280;7004;48.206;16.402;2023-01-15T02:58:53;99164.25;;;7.38;75.96
13869;BME280;7004;48.206;16.402;2023-01-15T03:01:47;99159.63;;;7.28;76.46
13869;BME280;7004;48.206;16.402;2023-01-15T03:04:28;99162.81;;;7.03;77.73
13869;BME280;7004;48.206;16.402;2023-01-15T03:09:41;99148.91;;;7.31;76.62
13869;BME280;7004;48.206;16.402;2023-01-15T03:17:52;99140.69;;;7.51;76.68
13869;BME280;7004;48.206;16.402;2023-01-15T03:20:26;99137.19;;;7.22;77.99
13869;BME280;7004;48.206;16.402;2023-01-15T03:23:05;99130.44;;;7.47;76.73
13869;BME280;7004;48.206;16.402;2023-01-15T03:25:40;99128.25;;;7.25;77.56
13869;BME280;7004;48.206;16.402;2023-01-15T03:28:10;99123.97;;;7.08;78.57
13869;BME280;7004;48.206;16.402;2023-01-15T03:30:37;99107.47;;;7.06;78.86
13869;BME280;7004;48.206;16.402;2023-01-15T03:33:03;99107.56;;;7.18;78.14
13869;BME280;7004;48.206;16.402;2023-01-15T03:35:51;99095.44;;;7.02;78.64
13869;BME280;7004;48.206;16.402;2023-01-15T03:38:22;99100.50;;;7.05;78.76
13869;BME280;7004;48.206;16.402;2023-01-15T03:43:50;99095.44;;;7.02;79.30
13869;BME280;7004;48.206;16.402;2023-01-15T03:54:49;99076.28;;;6.99;79.34
13869;BME280;7004;48.206;16.402;2023-01-15T03:57:44;99077.00;;;6.87;79.07
13869;BME280;7004;48.206;16.402;2023-01-15T04:02:49;99075.53;;;6.97;79.53
13869;BME280;7004;48.206;16.402;2023-01-15T04:05:18;99084.44;;;6.65;79.78
13869;BME280;7004;48.206;16.402;2023-01-15T04:07:46;99090.44;;;6.83;80.53
13869;BME280;7004;48.206;16.402;2023-01-15T04:10:13;99084.41;;;7.11;78.31
13869;BME280;7004;48.206;16.402;2023-01-15T04:12:39;99091.66;;;6.91;79.15
13869;BME280;7004;48.206;16.402;2023-01-15T04:15:06;99099.22;;;7.12;78.75
13869;BME280;7004;48.206;16.402;2023-01-15T04:17:32;99101.22;;;7.22;77.69
13869;BME280;7004;48.206;16.402;2023-01-15T04:19:58;99092.25;;;6.96;79.80
13869;BME280;7004;48.206;16.402;2023-01-15T04:22:24;99094.78;;;6.98;78.29
13869;BME280;7004;48.206;16.402;2023-01-15T04:24:51;99098.25;;;6.98;77.71
13869;BME280;7004;48.206;16.402;2023-01-15T04:27:19;99084.44;;;6.65;78.89
13869;BME280;7004;48.206;16.402;2023-01-15T04:29:46;99091.44;;;6.80;79.26
13869;BME280;7004;48.206;16.402;2023-01-15T04:32:12;99080.56;;;6.86;78.00
13869;BME280;7004;48.206;16.402;2023-01-15T04:34:38;99086.63;;;7.03;77.21
13869;BME280;7004;48.206;16.402;2023-01-15T04:37:04;99078.59;;;7.20;76.23
13869;BME280;7004;48.206;16.402;2023-01-15T04:39:30;99078.56;;;7.06;77.11
13869;BME280;7004;48.206;16.402;2023-01-15T04:41:56;99070.19;;;7.13;76.56
13869;BME280;7004;48.206;16.402;2023-01-15T04:44:52;99079.50;;;7.05;77.38
13869;BME280;7004;48.206;16.402;2023-01-15T04:47:18;99074.06;;;7.08;77.47
13869;BME280;7004;48.206;16.402;2023-01-15T04:49:44;99082.88;;;7.07;76.88
13869;BME280;7004;48.206;16.402;2023-01-15T04:52:10;99078.91;;;6.99;77.60
13869;BME280;7004;48.206;16.402;2023-01-15T04:54:36;99079.03;;;6.82;78.68
13869;BME280;7004;48.206;16.402;2023-01-15T04:57:04;99075.13;;;6.89;78.81
13869;BME280;7004;48.206;16.402;2023-01-15T04:59:30;99075.63;;;6.66;79.71
13869;BME280;7004;48.206;16.402;2023-01-15T05:01:56;99065.66;;;6.56;80.32
13869;BME280;7004;48.206;16.402;2023-01-15T05:04:22;99061.06;;;6.60;80.49
13869;BME280;7004;48.206;16.402;2023-01-15T05:06:49;99071.78;;;6.41;81.28
13869;BME280;7004;48.206;16.402;2023-01-15T05:09:15;99065.75;;;6.85;78.69
13869;BME280;7004;48.206;16.402;2023-01-15T05:11:41;99067.56;;;6.99;78.30
13869;BME280;7004;48.206;16.402;2023-01-15T05:14:08;99060.78;;;6.95;77.90
13869;BME280;7004;48.206;16.402;2023-01-15T05:16:34;99063.91;;;7.02;77.78
13869;BME280;7004;48.206;16.402;2023-01-15T05:19:02;99055.06;;;7.03;77.84
13869;BME280;7004;48.206;16.402;2023-01-15T05:21:32;99053.31;;;7.03;78.12
13869;BME280;7004;48.206;16.402;2023-01-15T05:24:01;99054.16;;;6.73;78.55
13869;BME280;7004;48.206;16.402;2023-01-15T05:26:30;99050.66;;;6.89;77.70
13869;BME280;7004;48.206;16.402;2023-01-15T05:28:58;99050.59;;;7.05;77.30
13869;BME280;7004;48.206;16.402;2023-01-15T05:31:25;99051.88;;;6.97;77.02
13869;BME280;7004;48.206;16.402;2023-01-15T05:33:53;99044.31;;;7.07;77.53
13869;BME280;7004;48.206;16.402;2023-01-15T05:36:26;99050.66;;;6.89;77.81
13869;BME280;7004;48.206;16.402;2023-01-15T05:38:54;99050.59;;;7.05;76.29
13869;BME280;7004;48.206;16.402;2023-01-15T05:41:21;99038.41;;;7.04;76.65
13869;BME280;7004;48.206;16.402;2023-01-15T05:44:09;99042.16;;;7.14;75.71
13869;BME280;7004;48.206;16.402;2023-01-15T05:46:38;99050.50;;;7.20;75.39
13869;BME280;7004;48.206;16.402;2023-01-15T05:49:08;99044.81;;;6.84;76.19
13869;BME280;7004;48.206;16.402;2023-01-15T05:51:36;99045.13;;;7.08;76.26
13869;BME280;7004;48.206;16.402;2023-01-15T05:54:04;99044.69;;;7.01;76.01
13869;BME280;7004;48.206;16.402;2023-01-15T05:56:31;99050.31;;;7.23;75.34
13869;BME280;7004;48.206;16.402;2023-01-15T05:58:59;99053.13;;;7.20;74.13
13869;BME280;7004;48.206;16.402;2023-01-15T06:01:25;99053.19;;;6.90;75.86
13869;BME280;7004;48.206;16.402;2023-01-15T06:03:51;99059.81;;;6.82;75.78
13869;BME280;7004;48.206;16.402;2023-01-15T06:06:20;99065.47;;;6.90;74.92
13869;BME280;7004;48.206;16.402;2023-01-15T06:08:46;99063.84;;;6.73;75.84
13869;BME280;7004;48.206;16.402;2023-01-15T06:11:12;99067.50;;;7.00;75.13
13869;BME280;7004;48.206;16.402;2023-01-15T06:13:39;99056.59;;;7.21;73.54
13869;BME280;7004;48.206;16.402;2023-01-15T06:16:06;99075.22;;;7.32;73.01
13869;BME280;7004;48.206;16.402;2023-01-15T06:18:33;99090.34;;;7.43;72.99
13869;BME280;7004;48.206;16.402;2023-01-15T06:21:05;99081.69;;;7.41;72.88
13869;BME280;7004;48.206;16.402;2023-01-15T06:23:32;99087.34;;;7.49;72.28
13869;BME280;7004;48.206;16.402;2023-01-15T06:26:07;99079.81;;;7.57;72.42
13869;BME280;7004;48.206;16.402;2023-01-15T06:28:33;99093.25;;;6.94;74.64
13869;BME280;7004;48.206;16.402;2023-01-15T06:31:03;99090.50;;;7.26;74.28
13869;BME280;7004;48.206;16.402;2023-01-15T06:33:29;99075.00;;;7.21;73.72
13869;BME280;7004;48.206;16.402;2023-01-15T06:35:56;99091.00;;;7.32;74.29
13869;BME280;7004;48.206;16.402;2023-01-15T06:38:22;99082.59;;;6.67;78.27
13869;BME280;7004;48.206;16.402;2023-01-15T06:40:48;99079.84;;;6.68;79.48
13869;BME280;7004;48.206;16.402;2023-01-15T06:43:14;99083.38;;;6.83;77.17
13869;BME280;7004;48.206;16.402;2023-01-15T06:45:59;99083.53;;;6.96;78.34
13869;BME280;7004;48.206;16.402;2023-01-15T06:48:44;99063.78;;;6.12;81.86
13869;BME280;7004;48.206;16.402;2023-01-15T06:51:12;99071.00;;;6.55;80.69
13869;BME280;7004;48.206;16.402;2023-01-15T06:53:40;99059.16;;;6.78;79.44
13869;BME280;7004;48.206;16.402;2023-01-15T06:56:07;99075.31;;;6.56;79.11
13869;BME280;7004;48.206;16.402;2023-01-15T06:58:33;99068.59;;;6.96;76.58
13869;BME280;7004;48.206;16.402;2023-01-15T07:00:59;99063.41;;;6.95;75.52
13869;BME280;7004;48.206;16.402;2023-01-15T07:03:25;99065.53;;;6.44;76.84
13869;BME280;7004;48.206;16.402;2023-01-15T07:05:52;99059.38;;;6.89;76.00
13869;BME280;7004;48.206;16.402;2023-01-15T07:08:18;99053.56;;;6.54;78.02
13869;BME280;7004;48.206;16.402;2023-01-15T07:10:44;99042.88;;;6.57;76.59
13869;BME280;7004;48.206;16.402;2023-01-15T07:13:10;99050.38;;;6.63;78.07
13869;BME280;7004;48.206;16.402;2023-01-15T07:15:39;99048.25;;;6.24;79.06
13869;BME280;7004;48.206;16.402;2023-01-15T07:18:05;99051.75;;;6.08;80.31
13869;BME280;7004;48.206;16.402;2023-01-15T07:20:34;99050.56;;;6.14;82.05
13869;BME280;7004;48.206;16.402;2023-01-15T07:23:01;99042.03;;;6.10;81.52
13869;BME280;7004;48.206;16.402;2023-01-15T07:25:27;99028.47;;;5.86;82.54
13869;BME280;7004;48.206;16.402;2023-01-15T07:27:53;99037.94;;;5.89;83.29
13869;BME280;7004;48.206;16.402;2023-01-15T07:30:19;99039.94;;;5.68;86.34
13869;BME280;7004;48.206;16.402;2023-01-15T07:32:45;99035.16;;;6.08;84.56
13869;BME280;7004;48.206;16.402;2023-01-15T07:35:11;99023.94;;;5.88;86.07
13869;BME280;7004;48.206;16.402;2023-01-15T07:37:37;99014.44;;;5.38;90.55
13869;BME280;7004;48.206;16.402;2023-01-15T07:40:05;99019.72;;;5.86;89.48
13869;BME280;7004;48.206;16.402;2023-01-15T07:42:31;99022.38;;;6.02;91.10
13869;BME280;7004;48.206;16.402;2023-01-15T07:45:30;99009.81;;;5.75;89.94
13869;BME280;7004;48.206;16.402;2023-01-15T07:48:14;99022.53;;;5.83;91.29
13869;BME280;7004;48.206;16.402;2023-01-15T07:51:00;99036.06;;;6.07;91.70
13869;BME280;7004;48.206;16.402;2023-01-15T07:53:26;99037.56;;;6.43;90.50
13869;BME280;7004;48.206;16.402;2023-01-15T07:55:52;99026.75;;;6.17;91.91
13869;BME280;7004;48.206;16.402;2023-01-15T07:58:18;99023.88;;;6.22;93.15
13869;BME280;7004;48.206;16.402;2023-01-15T08:00:51;99018.31;;;6.28;94.08
13869;BME280;7004;48.206;16.402;2023-01-15T08:03:22;99000.78;;;6.28;94.22
13869;BME280;7004;48.206;16.402;2023-01-15T08:05:48;99011.44;;;6.09;94.94
13869;BME280;7004;48.206;16.402;2023-01-15T08:08:17;99003.44;;;6.43;94.28
13869;BME280;7004;48.206;16.402;2023-01-15T08:10:44;99008.66;;;6.28;94.77
13869;BME280;7004;48.206;16.402;2023-01-15T08:13:29;98997.84;;;6.03;93.39
13869;BME280;7004;48.206;16.402;2023-01-15T08:16:14;99001.38;;;6.02;93.09
13869;BME280;7004;48.206;16.402;2023-01-15T08:18:40;99008.56;;;6.14;93.86
13869;BME280;7004;48.206;16.402;2023-01-15T08:21:11;98994.09;;;5.75;95.32
13869;BME280;7004;48.206;16.402;2023-01-15T08:23:38;98993.63;;;6.46;94.06
13869;BME280;7004;48.206;16.402;2023-01-15T08:26:04;98988.00;;;5.59;97.43
13869;BME280;7004;48.206;16.402;2023-01-15T08:28:30;98973.19;;;5.89;98.08
13869;BME280;7004;48.206;16.402;2023-01-15T08:30:57;98978.53;;;5.88;98.81
13869;BME280;7004;48.206;16.402;2023-01-15T08:33:23;98982.50;;;6.11;98.91
13869;BME280;7004;48.206;16.402;2023-01-15T08:35:49;98982.28;;;6.00;95.21
13869;BME280;7004;48.206;16.402;2023-01-15T08:38:15;98983.59;;;5.91;95.90
13869;BME280;7004;48.206;16.402;2023-01-15T08:40:41;98978.22;;;6.10;95.51
13869;BME280;7004;48.206;16.402;2023-01-15T08:43:36;98984.63;;;6.04;93.33
13869;BME280;7004;48.206;16.402;2023-01-15T08:46:04;98986.53;;;6.32;91.45
13869;BME280;7004;48.206;16.402;2023-01-15T08:48:31;98986.38;;;5.88;92.19
13869;BME280;7004;48.206;16.402;2023-01-15T08:50:58;98980.22;;;5.73;94.03
13869;BME280;7004;48.206;16.402;2023-01-15T08:53:24;98983.34;;;5.48;93.89
13869;BME280;7004;48.206;16.402;2023-01-15T08:55:51;98984.53;;;5.42;94.44
13869;BME280;7004;48.206;16.402;2023-01-15T08:58:17;98987.06;;;5.76;92.61
13869;BME280;7004;48.206;16.402;2023-01-15T09:00:43;99001.28;;;5.72;93.17
13869;BME280;7004;48.206;16.402;2023-01-15T09:03:10;99003.97;;;5.86;92.12
13869;BME280;7004;48.206;16.402;2023-01-15T09:05:36;99006.59;;;5.86;91.60
13869;BME280;7004;48.206;16.402;2023-01-15T09:08:06;98999.25;;;6.24;90.84
13869;BME280;7004;48.206;16.402;2023-01-15T09:10:33;99020.50;;;6.20;90.73
13869;BME280;7004;48.206;16.402;2023-01-15T09:13:03;99000.19;;;5.91;92.93
13869;BME280;7004;48.206;16.402;2023-01-15T09:15:32;99005.34;;;6.09;92.71
13869;BME280;7004;48.206;16.402;2023-01-15T09:17:58;99002.47;;;6.13;92.32
13869;BME280;7004;48.206;16.402;2023-01-15T09:20:25;99004.91;;;6.17;92.53
13869;BME280;7004;48.206;16.402;2023-01-15T09:22:51;98994.84;;;6.25;93.82
13869;BME280;7004;48.206;16.402;2023-01-15T09:25:18;98996.72;;;5.91;94.16
13869;BME280;7004;48.206;16.402;2023-01-15T09:27:48;98995.09;;;5.88;93.99
13869;BME280;7004;48.206;16.402;2023-01-15T09:30:19;99003.44;;;5.97;92.92
13869;BME280;7004;48.206;16.402;2023-01-15T09:32:46;99003.16;;;5.69;93.68
13869;BME280;7004;48.206;16.402;2023-01-15T09:35:14;99009.66;;;5.62;94.03
13869;BME280;7004;48.206;16.402;2023-01-15T09:37:40;99010.59;;;5.93;95.50
13869;BME280;7004;48.206;16.402;2023-01-15T09:40:19;99013.06;;;6.12;94.96
13869;BME280;7004;48.206;16.402;2023-01-15T09:42:55;98999.25;;;6.24;92.61
13869;BME280;7004;48.206;16.402;2023-01-15T09:45:33;99003.84;;;5.89;94.29
13869;BME280;7004;48.206;16.402;2023-01-15T09:48:17;98998.06;;;6.14;94.25
13869;BME280;7004;48.206;16.402;2023-01-15T09:56:26;98997.97;;;6.31;94.55
13869;BME280;7004;48.206;16.402;2023-01-15T09:58:55;99004.88;;;6.02;95.05
13869;BME280;7004;48.206;16.402;2023-01-15T10:01:30;98992.53;;;6.34;94.37
13869;BME280;7004;48.206;16.402;2023-01-15T10:04:11;98995.38;;;6.46;94.46
13869;BME280;7004;48.206;16.402;2023-01-15T10:06:50;98987.31;;;6.19;95.33
13869;BME280;7004;48.206;16.402;2023-01-15T10:09:28;98973.06;;;6.53;94.85
13869;BME280;7004;48.206;16.402;2023-01-15T10:11:59;98973.94;;;6.23;96.14
13869;BME280;7004;48.206;16.402;2023-01-15T10:17:57;98976.97;;;6.62;97.24
13869;BME280;7004;48.206;16.402;2023-01-15T10:23:35;98985.88;;;6.29;95.47
13869;BME280;7004;48.206;16.402;2023-01-15T10:26:55;98978.38;;;6.37;95.91
13869;BME280;7004;48.206;16.402;2023-01-15T10:31:50;98971.22;;;6.55;93.84
13869;BME280;7004;48.206;16.402;2023-01-15T10:37:53;98972.03;;;6.41;94.50
13869;BME280;7004;48.206;16.402;2023-01-15T10:46:26;98960.28;;;6.91;95.59
13869;BME280;7004;48.206;16.402;2023-01-15T10:49:27;98947.53;;;6.41;96.20
13869;BME280;7004;48.206;16.402;2023-01-15T10:52:14;98945.56;;;6.00;96.80
13869;BME280;7004;48.206;16.402;2023-01-15T10:55:09;98930.03;;;6.41;95.70
13869;BME280;7004;48.206;16.402;2023-01-15T10:58:33;98913.56;;;6.82;94.12
13869;BME280;7004;48.206;16.402;2023-01-15T11:01:23;98912.03;;;6.64;95.41
13869;BME280;7004;48.206;16.402;2023-01-15T11:03:52;98916.28;;;6.22;96.94
13869;BME280;7004;48.206;16.402;2023-01-15T11:06:22;98912.72;;;6.82;95.33
13869;BME280;7004;48.206;16.402;2023-01-15T11:08:53;98904.63;;;6.42;94.41
13869;BME280;7004;48.206;16.402;2023-01-15T11:11:35;98898.28;;;6.16;96.86
13869;BME280;7004;48.206;16.402;2023-01-15T11:14:36;98891.00;;;6.35;95.06
13869;BME280;7004;48.206;16.402;2023-01-15T11:17:23;98894.88;;;6.58;93.80
13869;BME280;7004;48.206;16.402;2023-01-15T11:20:44;98890.28;;;6.47;93.76
13869;BME280;7004;48.206;16.402;2023-01-15T11:23:19;98884.19;;;6.47;92.54
13869;BME280;7004;48.206;16.402;2023-01-15T11:25:58;98887.38;;;6.52;93.88
13869;BME280;7004;48.206;16.402;2023-01-15T11:28:37;98877.72;;;6.52;93.72
13869;BME280;7004;48.206;16.402;2023-01-15T11:31:10;98885.09;;;6.46;94.08
13869;BME280;7004;48.206;16.402;2023-01-15T11:33:37;98878.75;;;6.36;93.44
13869;BME280;7004;48.206;16.402;2023-01-15T11:36:24;98876.66;;;6.26;94.52
13869;BME280;7004;48.206;16.402;2023-01-15T11:38:51;98878.75;;;6.50;93.86
13869;BME280;7004;48.206;16.402;2023-01-15T11:41:21;98885.22;;;6.59;92.54
13869;BME280;7004;48.206;16.402;2023-01-15T11:43:58;98888.59;;;6.46;95.72
13869;BME280;7004;48.206;16.402;2023-01-15T11:46:46;98884.06;;;6.48;92.13
13869;BME280;7004;48.206;16.402;2023-01-15T11:49:31;98892.91;;;7.05;93.23
13869;BME280;7004;48.206;16.402;2023-01-15T11:52:30;98891.16;;;6.62;94.41
13869;BME280;7004;48.206;16.402;2023-01-15T11:54:56;98885.66;;;6.37;94.28
13869;BME280;7004;48.206;16.402;2023-01-15T11:57:30;98878.66;;;6.66;94.02
13869;BME280;7004;48.206;16.402;2023-01-15T11:59:57;98878.00;;;6.62;92.02
13869;BME280;7004;48.206;16.402;2023-01-15T12:02:35;98877.41;;;6.43;94.87
13869;BME280;7004;48.206;16.402;2023-01-15T12:05:14;98878.19;;;6.45;95.60
13869;BME280;7004;48.206;16.402;2023-01-15T12:07:41;98876.97;;;6.36;95.12
13869;BME280;7004;48.206;16.402;2023-01-15T12:10:23;98865.81;;;6.47;95.69
13869;BME280;7004;48.206;16.402;2023-01-15T12:18:56;98837.38;;;6.25;97.24
13869;BME280;7004;48.206;16.402;2023-01-15T12:21:47;98836.53;;;6.82;96.05
13869;BME280;7004;48.206;16.402;2023-01-15T12:27:41;98837.66;;;6.92;96.07
13869;BME280;7004;48.206;16.402;2023-01-15T12:33:16;98843.50;;;5.95;100.00
13869;BME280;7004;48.206;16.402;2023-01-15T12:36:10;98844.47;;;6.08;100.00
13869;BME280;7004;48.206;16.402;2023-01-15T12:41:33;98826.03;;;6.24;100.00
13869;BME280;7004;48.206;16.402;2023-01-15T12:44:50;98827.16;;;6.20;100.00
13869;BME280;7004;48.206;16.402;2023-01-15T12:59:27;98830.72;;;6.48;100.00
13869;BME280;7004;48.206;16.402;2023-01-15T13:02:12;98828.22;;;6.46;100.00
13869;BME280;7004;48.206;16.402;2023-01-15T13:07:41;98819.53;;;6.01;100.00
13869;BME280;7004;48.206;16.402;2023-01-15T13:10:22;98804.19;;;6.38;100.00
13869;BME280;7004;48.206;16.402;2023-01-15T13:12:52;98811.91;;;6.41;100.00
13869;BME280;7004;48.206;16.402;2023-01-15T13:15:24;98809.09;;;6.44;100.00
13869;BME280;7004;48.206;16.402;2023-01-15T13:20:44;98802.47;;;6.08;100.00
13869;BME280;7004;48.206;16.402;2023-01-15T13:23:25;98804.94;;;6.26;100.00
13869;BME280;7004;48.206;16.402;2023-01-15T13:28:48;98812.16;;;6.37;100.00
13869;BME280;7004;48.206;16.402;2023-01-15T13:31:37;98808.03;;;6.32;100.00
13869;BME280;7004;48.206;16.402;2023-01-15T13:37:27;98819.06;;;6.09;100.00
13869;BME280;7004;48.206;16.402;2023-01-15T13:40:43;98807.00;;;6.21;100.00
13869;BME280;7004;48.206;16.402;2023-01-15T13:42:50;98804.19;;;6.38;100.00
13869;BME280;7004;48.206;16.402;2023-01-15T13:48:15;98801.47;;;6.40;100.00
13869;BME280;7004;48.206;16.402;2023-01-15T13:50:56;98799.69;;;6.54;100.00
13869;BME280;7004;48.206;16.402;2023-01-15T13:53:43;98803.00;;;6.44;100.00
13869;BME280;7004;48.206;16.402;2023-01-15T13:56:12;98797.16;;;6.24;100.00
13869;BME280;7004;48.206;16.402;2023-01-15T13:59:04;98804.19;;;6.52;100.00
13869;BME280;7004;48.206;16.402;2023-01-15T14:01:31;98810.50;;;6.64;100.00
13869;BME280;7004;48.206;16.402;2023-01-15T14:09:29;98836.53;;;6.53;100.00
13869;BME280;7004;48.206;16.402;2023-01-15T14:12:40;98833.75;;;6.42;100.00
13869;BME280;7004;48.206;16.402;2023-01-15T14:21:30;98846.59;;;6.61;100.00
13869;BME280;7004;48.206;16.402;2023-01-15T14:37:00;98834.03;;;6.51;100.00
13869;BME280;7004;48.206;16.402;2023-01-15T14:39:47;98840.31;;;6.49;100.00
13869;BME280;7004;48.206;16.402;2023-01-15T14:45:34;98855.69;;;6.69;100.00
13869;BME280;7004;48.206;16.402;2023-01-15T14:50:54;98866.19;;;6.98;100.00
13869;BME280;7004;48.206;16.402;2023-01-15T14:56:33;98877.44;;;6.86;100.00
13869;BME280;7004;48.206;16.402;2023-01-15T14:59:18;98882.69;;;6.71;100.00
13869;BME280;7004;48.206;16.402;2023-01-15T15:01:57;98881.47;;;6.91;100.00
13869;BME280;7004;48.206;16.402;2023-01-15T15:04:52;98888.25;;;6.95;100.00
13869;BME280;7004;48.206;16.402;2023-01-15T15:07:29;98886.72;;;7.06;100.00
13869;BME280;7004;48.206;16.402;2023-01-15T15:23:39;98928.69;;;7.21;100.00
13869;BME280;7004;48.206;16.402;2023-01-15T15:26:32;98945.25;;;6.79;100.00
13869;BME280;7004;48.206;16.402;2023-01-15T15:29:05;98959.38;;;7.07;100.00
13869;BME280;7004;48.206;16.402;2023-01-15T15:31:55;98963.75;;;6.77;100.00
13869;BME280;7004;48.206;16.402;2023-01-15T15:34:36;98974.94;;;6.95;100.00
13869;BME280;7004;48.206;16.402;2023-01-15T15:37:28;98972.78;;;6.88;100.00
13869;BME280;7004;48.206;16.402;2023-01-15T15:40:03;98964.28;;;6.68;100.00
13869;BME280;7004;48.206;16.402;2023-01-15T15:42:46;98951.00;;;6.86;100.00
13869;BME280;7004;48.206;16.402;2023-01-15T15:45:34;98950.31;;;6.68;100.00
13869;BME280;7004;48.206;16.402;2023-01-15T15:48:31;98951.53;;;6.76;100.00
13869;BME280;7004;48.206;16.402;2023-01-15T15:54:14;98926.63;;;6.98;100.00
13869;BME280;7004;48.206;16.402;2023-01-15T15:56:56;98940.03;;;7.22;100.00
13869;BME280;7004;48.206;16.402;2023-01-15T15:59:34;98932.50;;;6.87;100.00
13869;BME280;7004;48.206;16.402;2023-01-15T16:02:30;98939.06;;;7.23;100.00
13869;BME280;7004;48.206;16.402;2023-01-15T16:07:44;98946.97;;;7.37;100.00
13869;BME280;7004;48.206;16.402;2023-01-15T16:10:24;98951.94;;;7.28;100.00
13869;BME280;7004;48.206;16.402;2023-01-15T16:13:04;98946.38;;;7.47;100.00
13869;BME280;7004;48.206;16.402;2023-01-15T16:15:40;98957.13;;;7.29;100.00
13869;BME280;7004;48.206;16.402;2023-01-15T16:18:30;98958.13;;;7.41;100.00